createdAt,value
2022-12-17T00:01:26.916Z,5
2022-12-17T00:03:53.535Z,5
2022-12-17T00:06:20.267Z,5.1
2022-12-17T00:08:46.985Z,5
2022-12-17T00:11:13.579Z,5
2022-12-17T00:13:40.439Z,5
2022-12-17T00:16:07.014Z,5
2022-12-17T00:18:33.816Z,5
2022-12-17T00:21:00.323Z,5
2022-12-17T00:23:27.012Z,5
2022-12-17T00:25:53.689Z,5
2022-12-17T00:28:18.914Z,5
2022-12-17T00:30:45.606Z,5
2022-12-17T00:33:12.304Z,4.9
2022-12-17T00:35:38.968Z,4.9
2022-12-17T00:38:05.659Z,5
2022-12-17T00:40:32.335Z,4.9
2022-12-17T00:42:59.188Z,4.9
2022-12-17T00:45:25.731Z,4.9
2022-12-17T00:47:52.398Z,4.9
2022-12-17T00:50:19.162Z,4.9
2022-12-17T00:52:45.788Z,4.9
2022-12-17T00:55:12.553Z,4.9
2022-12-17T00:57:39.244Z,4.9
2022-12-17T01:00:04.399Z,4.9
2022-12-17T01:02:31.043Z,4.9
2022-12-17T01:04:57.736Z,4.9
2022-12-17T01:07:24.421Z,4.9
2022-12-17T01:09:51.109Z,4.9
2022-12-17T01:12:17.921Z,4.9
2022-12-17T01:14:44.622Z,4.9
2022-12-17T01:17:11.150Z,4.9
2022-12-17T01:19:37.917Z,4.8
2022-12-17T01:22:04.544Z,4.9
2022-12-17T01:24:31.226Z,4.9
2022-12-17T01:26:58.019Z,4.8
2022-12-17T01:29:24.735Z,4.8
2022-12-17T01:31:49.821Z,4.8
2022-12-17T01:34:16.507Z,4.8
2022-12-17T01:36:43.182Z,4.8
2022-12-17T01:39:09.885Z,4.8
2022-12-17T01:41:36.556Z,4.8
2022-12-17T01:44:03.249Z,4.8
2022-12-17T01:46:29.930Z,4.8
2022-12-17T01:48:56.625Z,4.8
2022-12-17T01:51:23.302Z,4.8
2022-12-17T01:53:49.978Z,4.8
2022-12-17T01:56:16.681Z,4.8
2022-12-17T01:58:43.363Z,4.8
2022-12-17T02:01:10.081Z,4.8
2022-12-17T02:03:35.270Z,4.7
2022-12-17T02:06:01.963Z,4.7
2022-12-17T02:08:28.632Z,4.7
2022-12-17T02:10:55.331Z,4.7
2022-12-17T02:13:22.012Z,4.7
2022-12-17T02:15:48.695Z,4.7
2022-12-17T02:18:15.371Z,4.7
2022-12-17T02:20:42.074Z,4.7
2022-12-17T02:23:08.773Z,4.7
2022-12-17T02:25:35.441Z,4.7
2022-12-17T02:28:02.121Z,4.7
2022-12-17T02:30:28.815Z,4.7
2022-12-17T02:32:55.499Z,4.7
2022-12-17T02:35:20.713Z,4.7
2022-12-17T02:37:47.421Z,4.7
2022-12-17T02:40:14.096Z,4.7
2022-12-17T02:42:40.776Z,4.7
2022-12-17T02:45:07.467Z,4.7
2022-12-17T02:47:34.229Z,4.7
2022-12-17T02:50:00.837Z,4.7
2022-12-17T02:52:27.523Z,4.7
2022-12-17T02:54:54.207Z,4.7
2022-12-17T02:57:20.899Z,4.7
2022-12-17T02:59:47.576Z,4.7
2022-12-17T03:02:14.273Z,4.6
2022-12-17T03:04:40.948Z,4.6
2022-12-17T03:07:06.169Z,4.6
2022-12-17T03:09:32.855Z,4.7
2022-12-17T03:11:59.538Z,4.7
2022-12-17T03:14:26.225Z,4.6
2022-12-17T03:16:52.904Z,4.6
2022-12-17T03:19:19.600Z,4.6
2022-12-17T03:21:46.292Z,4.6
2022-12-17T03:24:12.966Z,4.6
2022-12-17T03:26:39.650Z,4.6
2022-12-17T03:29:06.350Z,4.6
2022-12-17T03:31:33.024Z,4.6
2022-12-17T03:33:59.713Z,4.6
2022-12-17T03:36:26.397Z,4.6
2022-12-17T03:38:51.617Z,4.6
2022-12-17T03:41:18.306Z,4.6
2022-12-17T03:43:44.999Z,4.6
2022-12-17T03:46:11.692Z,4.6
2022-12-17T03:48:38.360Z,4.6
2022-12-17T03:51:05.074Z,4.6
2022-12-17T03:53:31.746Z,4.6
2022-12-17T03:55:58.419Z,4.6
2022-12-17T03:58:25.111Z,4.6
2022-12-17T04:00:51.796Z,4.6
2022-12-17T04:03:18.481Z,4.6
2022-12-17T04:05:45.175Z,4.6
2022-12-17T04:08:11.850Z,4.5
2022-12-17T04:10:37.085Z,4.6
2022-12-17T04:13:03.764Z,4.5
2022-12-17T04:15:30.442Z,4.6
2022-12-17T04:17:57.129Z,4.5
2022-12-17T04:20:23.819Z,4.6
2022-12-17T04:22:50.519Z,4.5
2022-12-17T04:25:17.185Z,4.5
2022-12-17T04:27:43.878Z,4.5
2022-12-17T04:30:10.574Z,4.5
2022-12-17T04:32:37.255Z,4.5
2022-12-17T04:35:03.946Z,4.4
2022-12-17T04:37:30.619Z,4.5
2022-12-17T04:39:57.305Z,4.5
2022-12-17T04:42:22.528Z,4.4
2022-12-17T04:44:49.215Z,4.5
2022-12-17T04:47:15.895Z,4.5
2022-12-17T04:49:42.588Z,4.5
2022-12-17T04:52:09.268Z,4.5
2022-12-17T04:54:35.959Z,4.5
2022-12-17T04:57:02.648Z,4.5
2022-12-17T04:59:29.328Z,4.4
2022-12-17T05:01:56.012Z,4.4
2022-12-17T05:04:22.689Z,4.4
2022-12-17T05:06:49.395Z,4.4
2022-12-17T05:09:16.081Z,4.4
2022-12-17T05:11:42.757Z,4.4
2022-12-17T05:14:07.981Z,4.4
2022-12-17T05:16:34.662Z,4.4
2022-12-17T05:19:01.349Z,4.4
2022-12-17T05:21:28.034Z,4.4
2022-12-17T05:23:54.721Z,4.4
2022-12-17T05:26:21.417Z,4.4
2022-12-17T05:28:48.089Z,4.4
2022-12-17T05:31:14.776Z,4.4
2022-12-17T05:33:41.462Z,4.4
2022-12-17T05:36:08.159Z,4.4
2022-12-17T05:38:34.846Z,4.4
2022-12-17T05:41:01.528Z,4.4
2022-12-17T05:43:28.207Z,4.4
2022-12-17T05:45:53.423Z,4.4
2022-12-17T05:48:20.114Z,4.4
2022-12-17T05:50:46.806Z,4.4
2022-12-17T05:53:13.489Z,4.4
2022-12-17T05:55:40.165Z,4.4
2022-12-17T05:58:06.864Z,4.4
2022-12-17T06:00:32.107Z,4.4
2022-12-17T06:02:58.790Z,4.4
2022-12-17T06:05:25.475Z,4.4
2022-12-17T06:07:52.151Z,4.4
2022-12-17T06:10:18.847Z,4.4
2022-12-17T06:12:45.528Z,4.3
2022-12-17T06:15:12.208Z,4.4
2022-12-17T06:17:38.902Z,4.4
2022-12-17T06:20:05.587Z,4.4
2022-12-17T06:22:32.283Z,4.4
2022-12-17T06:24:58.961Z,4.4
2022-12-17T06:27:25.652Z,4.3
2022-12-17T06:29:52.325Z,4.3
2022-12-17T06:32:17.566Z,4.3
2022-12-17T06:34:44.251Z,4.3
2022-12-17T06:37:10.932Z,4.3
2022-12-17T06:39:37.622Z,4.3
2022-12-17T06:42:04.306Z,4.3
2022-12-17T06:44:30.982Z,4.3
2022-12-17T06:46:57.658Z,4.3
2022-12-17T06:49:24.360Z,4.3
2022-12-17T06:51:51.050Z,4.3
2022-12-17T06:54:17.743Z,4.3
2022-12-17T06:56:44.412Z,4.3
2022-12-17T06:59:11.109Z,4.3
2022-12-17T07:01:37.800Z,4.2
2022-12-17T07:04:03.003Z,4.3
2022-12-17T07:06:29.699Z,4.3
2022-12-17T07:08:56.378Z,4.3
2022-12-17T07:11:23.060Z,4.2
2022-12-17T07:13:49.785Z,4.2
2022-12-17T07:16:16.133Z,4.2
2022-12-17T07:18:42.908Z,4.2
2022-12-17T07:21:09.504Z,4.2
2022-12-17T07:23:36.187Z,4.2
2022-12-17T07:26:02.861Z,4.2
2022-12-17T07:28:29.568Z,4.2
2022-12-17T07:30:56.241Z,4.2
2022-12-17T07:33:22.920Z,4.2
2022-12-17T07:35:48.156Z,4.2
2022-12-17T07:38:14.845Z,4.2
2022-12-17T07:40:40.846Z,4.2
2022-12-17T07:43:07.515Z,4.2
2022-12-17T07:45:34.217Z,4.2
2022-12-17T07:48:00.899Z,4.2
2022-12-17T07:50:27.583Z,4.2
2022-12-17T07:52:54.271Z,4.2
2022-12-17T07:55:20.959Z,4.2
2022-12-17T07:57:47.650Z,4.2
2022-12-17T08:00:14.329Z,4.2
2022-12-17T08:02:41.014Z,4.2
2022-12-17T08:05:06.264Z,4.2
2022-12-17T08:07:31.487Z,4.2
2022-12-17T08:09:58.166Z,4.2
2022-12-17T08:12:24.853Z,4.1
2022-12-17T08:14:51.540Z,4.2
2022-12-17T08:17:18.249Z,4.2
2022-12-17T08:19:43.485Z,4.2
2022-12-17T08:22:08.721Z,4.2
2022-12-17T08:24:35.384Z,4.2
2022-12-17T08:27:02.071Z,4.2
2022-12-17T08:29:28.756Z,4.1
2022-12-17T08:31:55.451Z,4.2
2022-12-17T08:34:22.130Z,4.2
2022-12-17T08:36:48.829Z,4.2
2022-12-17T08:39:15.506Z,4.2
2022-12-17T08:41:42.190Z,4.2
2022-12-17T08:44:08.876Z,4.1
2022-12-17T08:46:35.555Z,4.1
2022-12-17T08:49:02.253Z,4.1
2022-12-17T08:51:28.944Z,4.1
2022-12-17T08:53:54.160Z,4.1
2022-12-17T08:56:20.835Z,4.1
2022-12-17T08:58:47.533Z,4.1
2022-12-17T09:01:14.226Z,4.1
2022-12-17T09:03:40.899Z,4.1
2022-12-17T09:06:07.592Z,4.1
2022-12-17T09:08:34.275Z,4.1
2022-12-17T09:11:00.954Z,4.1
2022-12-17T09:13:27.640Z,4.1
2022-12-17T09:15:54.328Z,4.1
2022-12-17T09:18:21.013Z,4.1
2022-12-17T09:20:47.703Z,4.1
2022-12-17T09:23:14.377Z,4.1
2022-12-17T09:25:39.601Z,4.1
2022-12-17T09:28:06.302Z,4.1
2022-12-17T09:30:32.983Z,4.1
2022-12-17T09:32:59.648Z,4.1
2022-12-17T09:35:26.361Z,4.1
2022-12-17T09:37:53.029Z,4.1
2022-12-17T09:40:19.723Z,4.1
2022-12-17T09:42:46.407Z,4.1
2022-12-17T09:45:13.101Z,4.1
2022-12-17T09:47:39.777Z,4.1
2022-12-17T09:50:06.473Z,4.1
2022-12-17T09:52:33.148Z,4.1
2022-12-17T09:54:59.829Z,4.1
2022-12-17T09:57:25.046Z,4.1
2022-12-17T09:59:51.764Z,4.1
2022-12-17T10:02:18.424Z,4.1
2022-12-17T10:04:45.125Z,4.1
2022-12-17T10:07:11.807Z,4.1
2022-12-17T10:09:38.504Z,4.1
2022-12-17T10:12:05.172Z,4.1
2022-12-17T10:14:31.864Z,4.1
2022-12-17T10:16:58.545Z,4.1
2022-12-17T10:19:25.240Z,4.1
2022-12-17T10:21:51.906Z,4.1
2022-12-17T10:24:18.601Z,4.1
2022-12-17T10:26:45.284Z,4.1
2022-12-17T10:29:10.513Z,4.1
2022-12-17T10:31:37.198Z,4.1
2022-12-17T10:34:03.890Z,4.1
2022-12-17T10:36:30.553Z,4.1
2022-12-17T10:38:57.249Z,4.1
2022-12-17T10:41:23.938Z,4.1
2022-12-17T10:43:50.629Z,4.1
2022-12-17T10:46:17.326Z,4
2022-12-17T10:48:44.009Z,4.1
2022-12-17T10:51:10.678Z,4.1
2022-12-17T10:53:37.368Z,4.1
2022-12-17T10:56:04.054Z,4.1
2022-12-17T10:58:30.750Z,4.1
2022-12-17T11:00:55.971Z,4.1
2022-12-17T11:03:22.646Z,4.1
2022-12-17T11:05:49.334Z,4.1
2022-12-17T11:08:16.010Z,4
2022-12-17T11:10:42.096Z,4
2022-12-17T11:13:08.784Z,4.1
2022-12-17T11:15:35.466Z,4
2022-12-17T11:18:02.174Z,4
2022-12-17T11:20:28.855Z,4
2022-12-17T11:22:55.529Z,4
2022-12-17T11:25:22.218Z,4
2022-12-17T11:27:48.910Z,4
2022-12-17T11:30:15.580Z,4
2022-12-17T11:32:40.813Z,4
2022-12-17T11:35:07.493Z,4
2022-12-17T11:37:34.174Z,4
2022-12-17T11:40:00.860Z,4
2022-12-17T11:42:27.572Z,4
2022-12-17T11:44:54.243Z,4
2022-12-17T11:47:20.926Z,4
2022-12-17T11:49:47.614Z,4
2022-12-17T11:52:14.302Z,4
2022-12-17T11:54:40.971Z,4
2022-12-17T11:57:07.668Z,4
2022-12-17T11:59:34.383Z,4
2022-12-17T12:02:01.057Z,3.9
2022-12-17T12:04:26.255Z,4
2022-12-17T12:06:52.967Z,4
2022-12-17T12:09:19.635Z,4
2022-12-17T12:11:46.324Z,3.9
2022-12-17T12:14:13.007Z,3.9
2022-12-17T12:16:39.737Z,3.9
2022-12-17T12:19:06.388Z,3.9
2022-12-17T12:21:33.065Z,4
2022-12-17T12:23:59.744Z,3.9
2022-12-17T12:26:26.430Z,3.9
2022-12-17T12:28:53.117Z,3.9
2022-12-17T12:31:19.810Z,4
2022-12-17T12:33:46.497Z,3.9
2022-12-17T12:36:11.717Z,4
2022-12-17T12:38:38.394Z,3.9
2022-12-17T12:41:05.094Z,3.9
2022-12-17T12:43:31.773Z,4
2022-12-17T12:45:58.460Z,3.9
2022-12-17T12:48:25.129Z,3.9
2022-12-17T12:50:51.830Z,3.9
2022-12-17T12:53:18.520Z,3.9
2022-12-17T12:55:45.196Z,3.9
2022-12-17T12:58:11.889Z,3.9
2022-12-17T13:00:38.576Z,3.9
2022-12-17T13:03:05.271Z,3.9
2022-12-17T13:05:31.945Z,3.9
2022-12-17T13:07:57.168Z,3.9
2022-12-17T13:10:23.861Z,3.9
2022-12-17T13:12:50.532Z,3.9
2022-12-17T13:15:17.237Z,3.9
2022-12-17T13:17:43.926Z,3.9
2022-12-17T13:20:10.602Z,3.9
2022-12-17T13:22:37.286Z,3.9
2022-12-17T13:25:03.988Z,3.9
2022-12-17T13:27:30.663Z,3.9
2022-12-17T13:29:57.364Z,3.9
2022-12-17T13:32:24.039Z,3.9
2022-12-17T13:34:50.718Z,3.9
2022-12-17T13:37:17.384Z,3.9
2022-12-17T13:39:42.626Z,3.9
2022-12-17T13:42:09.335Z,3.9
2022-12-17T13:44:35.993Z,3.9
2022-12-17T13:47:02.685Z,3.9
2022-12-17T13:49:29.369Z,3.9
2022-12-17T13:51:56.042Z,3.9
2022-12-17T13:54:22.800Z,3.9
2022-12-17T13:56:49.417Z,3.9
2022-12-17T13:59:16.097Z,3.9
2022-12-17T14:01:42.925Z,3.9
2022-12-17T14:04:09.572Z,3.9
2022-12-17T14:06:36.190Z,3.9
2022-12-17T14:09:02.857Z,3.9
2022-12-17T14:11:28.099Z,3.9
2022-12-17T14:13:54.778Z,3.9
2022-12-17T14:16:21.470Z,3.9
2022-12-17T14:18:48.136Z,3.9
2022-12-17T14:21:14.827Z,3.9
2022-12-17T14:23:41.522Z,3.9
2022-12-17T14:26:08.202Z,3.9
2022-12-17T14:28:34.884Z,3.9
2022-12-17T14:31:01.595Z,3.9
2022-12-17T14:33:28.259Z,3.9
2022-12-17T14:35:54.949Z,3.9
2022-12-17T14:38:21.636Z,3.9
2022-12-17T14:40:48.326Z,3.9
2022-12-17T14:43:13.544Z,3.9
2022-12-17T14:45:40.220Z,3.9
2022-12-17T14:48:06.907Z,3.9
2022-12-17T14:50:33.598Z,3.9
2022-12-17T14:53:00.286Z,3.9
2022-12-17T14:55:26.957Z,3.9
2022-12-17T14:57:53.725Z,3.9
2022-12-17T15:00:20.340Z,3.9
2022-12-17T15:02:47.020Z,3.9
2022-12-17T15:05:13.708Z,3.9
2022-12-17T15:07:40.402Z,3.9
2022-12-17T15:10:07.079Z,3.9
2022-12-17T15:12:33.783Z,3.9
2022-12-17T15:14:58.995Z,3.9
2022-12-17T15:17:25.679Z,3.9
2022-12-17T15:19:52.361Z,3.9
2022-12-17T15:22:19.065Z,3.9
2022-12-17T15:24:45.746Z,3.9
2022-12-17T15:27:12.428Z,3.9
2022-12-17T15:29:39.111Z,3.9
2022-12-17T15:32:05.793Z,3.9
2022-12-17T15:34:32.492Z,3.9
2022-12-17T15:36:59.168Z,3.9
2022-12-17T15:39:25.839Z,3.9
2022-12-17T15:41:52.546Z,3.9
2022-12-17T15:44:19.220Z,3.9
2022-12-17T15:46:44.431Z,3.9
2022-12-17T15:49:11.136Z,3.9
2022-12-17T15:51:37.812Z,3.9
2022-12-17T15:54:04.499Z,3.9
2022-12-17T15:56:31.190Z,3.9
2022-12-17T15:58:57.869Z,3.9
2022-12-17T16:01:24.588Z,3.9
2022-12-17T16:03:51.240Z,3.9
2022-12-17T16:06:17.931Z,3.9
2022-12-17T16:08:44.628Z,3.9
2022-12-17T16:11:11.439Z,3.9
2022-12-17T16:13:38.004Z,3.9
2022-12-17T16:16:04.670Z,3.9
2022-12-17T16:18:29.890Z,3.9
2022-12-17T16:20:56.586Z,3.9
2022-12-17T16:23:23.341Z,3.9
2022-12-17T16:25:50.008Z,3.9
2022-12-17T16:28:16.739Z,3.9
2022-12-17T16:30:43.325Z,3.9
2022-12-17T16:33:10.020Z,3.9
2022-12-17T16:35:36.781Z,3.9
2022-12-17T16:38:03.438Z,3.9
2022-12-17T16:40:30.087Z,3.8
2022-12-17T16:42:56.765Z,3.8
2022-12-17T16:45:23.453Z,3.8
2022-12-17T16:47:50.151Z,3.8
2022-12-17T16:50:15.390Z,3.8
2022-12-17T16:52:42.035Z,3.8
2022-12-17T16:55:08.722Z,3.8
2022-12-17T16:57:35.465Z,3.8
2022-12-17T17:00:02.091Z,3.8
2022-12-17T17:02:28.795Z,3.8
2022-12-17T17:04:55.470Z,3.8
2022-12-17T17:07:22.204Z,3.8
2022-12-17T17:09:48.842Z,3.8
2022-12-17T17:12:15.534Z,3.8
2022-12-17T17:14:42.288Z,3.8
2022-12-17T17:17:08.891Z,3.8
2022-12-17T17:19:35.614Z,3.8
2022-12-17T17:22:00.798Z,3.8
2022-12-17T17:24:27.482Z,3.7
2022-12-17T17:26:54.187Z,3.7
2022-12-17T17:29:20.854Z,3.8
2022-12-17T17:31:47.578Z,3.8
2022-12-17T17:34:14.221Z,3.8
2022-12-17T17:36:40.925Z,3.7
2022-12-17T17:39:07.617Z,3.8
2022-12-17T17:41:34.345Z,3.7
2022-12-17T17:44:01.051Z,3.7
2022-12-17T17:46:27.655Z,3.7
2022-12-17T17:48:54.347Z,3.7
2022-12-17T17:51:21.059Z,3.7
2022-12-17T17:53:46.242Z,3.7
2022-12-17T17:56:12.970Z,3.7
2022-12-17T17:58:39.630Z,3.7
2022-12-17T18:01:06.309Z,3.7
2022-12-17T18:03:33.003Z,3.7
2022-12-17T18:05:59.691Z,3.7
2022-12-17T18:08:26.437Z,3.7
2022-12-17T18:10:53.049Z,3.7
2022-12-17T18:13:19.747Z,3.7
2022-12-17T18:15:46.433Z,3.7
2022-12-17T18:18:13.187Z,3.7
2022-12-17T18:20:39.893Z,3.7
2022-12-17T18:23:06.486Z,3.7
2022-12-17T18:25:31.728Z,3.7
2022-12-17T18:27:58.384Z,3.7
2022-12-17T18:30:25.124Z,3.7
2022-12-17T18:32:51.756Z,3.7
2022-12-17T18:35:18.458Z,3.7
2022-12-17T18:37:45.138Z,3.7
2022-12-17T18:40:11.829Z,3.7
2022-12-17T18:42:38.521Z,3.7
2022-12-17T18:45:05.202Z,3.7
2022-12-17T18:47:31.899Z,3.7
2022-12-17T18:49:58.569Z,3.7
2022-12-17T18:52:25.293Z,3.7
2022-12-17T18:54:51.931Z,3.7
2022-12-17T18:57:17.150Z,3.7
2022-12-17T18:59:43.834Z,3.7
2022-12-17T19:02:10.539Z,3.7
2022-12-17T19:04:37.215Z,3.7
2022-12-17T19:07:03.945Z,3.7
2022-12-17T19:09:30.610Z,3.7
2022-12-17T19:11:57.268Z,3.7
2022-12-17T19:14:23.976Z,3.7
2022-12-17T19:16:50.640Z,3.7
2022-12-17T19:19:17.373Z,3.7
2022-12-17T19:21:44.021Z,3.7
2022-12-17T19:24:10.709Z,3.7
2022-12-17T19:26:37.383Z,3.7
2022-12-17T19:29:02.617Z,3.7
2022-12-17T19:31:29.303Z,3.7
2022-12-17T19:33:56.026Z,3.7
2022-12-17T19:36:22.682Z,3.7
2022-12-17T19:38:49.356Z,3.6
2022-12-17T19:41:16.055Z,3.7
2022-12-17T19:43:42.780Z,3.6
2022-12-17T19:46:09.410Z,3.6
2022-12-17T19:48:36.097Z,3.6
2022-12-17T19:51:02.789Z,3.6
2022-12-17T19:53:29.480Z,3.6
2022-12-17T19:55:56.173Z,3.6
2022-12-17T19:58:22.906Z,3.6
2022-12-17T20:00:48.085Z,3.6
2022-12-17T20:03:14.753Z,3.6
2022-12-17T20:05:41.535Z,3.6
2022-12-17T20:08:08.130Z,3.6
2022-12-17T20:10:34.857Z,3.6
2022-12-17T20:13:01.523Z,3.6
2022-12-17T20:15:28.202Z,3.6
2022-12-17T20:17:54.895Z,3.6
2022-12-17T20:20:21.568Z,3.6
2022-12-17T20:22:48.315Z,3.6
2022-12-17T20:25:14.935Z,3.6
2022-12-17T20:27:41.638Z,3.6
2022-12-17T20:30:08.338Z,3.6
2022-12-17T20:32:33.530Z,3.6
2022-12-17T20:35:00.214Z,3.6
2022-12-17T20:37:26.976Z,3.6
2022-12-17T20:39:53.664Z,3.6
2022-12-17T20:42:20.262Z,3.6
2022-12-17T20:44:47.004Z,3.6
2022-12-17T20:47:13.648Z,3.6
2022-12-17T20:49:40.332Z,3.6
2022-12-17T20:52:07.023Z,3.6
2022-12-17T20:54:33.706Z,3.6
2022-12-17T20:57:00.380Z,3.6
2022-12-17T20:59:26.639Z,3.5
2022-12-17T21:01:53.313Z,3.6
2022-12-17T21:04:18.547Z,3.6
2022-12-17T21:06:45.298Z,3.5
2022-12-17T21:09:11.925Z,3.5
2022-12-17T21:11:38.670Z,3.5
2022-12-17T21:14:05.309Z,3.5
2022-12-17T21:16:31.996Z,3.5
2022-12-17T21:18:58.671Z,3.5
2022-12-17T21:21:25.358Z,3.5
2022-12-17T21:23:52.028Z,3.5
2022-12-17T21:26:18.711Z,3.5
2022-12-17T21:28:45.415Z,3.5
2022-12-17T21:31:12.092Z,3.5
2022-12-17T21:33:38.793Z,3.5
2022-12-17T21:36:04.028Z,3.5
2022-12-17T21:38:30.707Z,3.5
2022-12-17T21:40:57.391Z,3.5
2022-12-17T21:43:24.155Z,3.5
2022-12-17T21:45:50.735Z,3.5
2022-12-17T21:48:17.435Z,3.5
2022-12-17T21:50:44.131Z,3.5
2022-12-17T21:53:10.874Z,3.5
2022-12-17T21:55:37.483Z,3.4
2022-12-17T21:58:04.202Z,3.4
2022-12-17T22:00:30.879Z,3.4
2022-12-17T22:02:57.544Z,3.5
2022-12-17T22:05:24.236Z,3.4
2022-12-17T22:07:49.455Z,3.4
2022-12-17T22:10:16.134Z,3.4
2022-12-17T22:12:42.826Z,3.4
2022-12-17T22:15:09.518Z,3.4
2022-12-17T22:17:36.236Z,3.4
2022-12-17T22:20:02.885Z,3.4
2022-12-17T22:22:28.136Z,3.4
2022-12-17T22:24:54.881Z,3.4
2022-12-17T22:27:21.510Z,3.4
2022-12-17T22:29:48.192Z,3.4
2022-12-17T22:32:14.877Z,3.4
2022-12-17T22:34:41.563Z,3.4
2022-12-17T22:37:08.257Z,3.4
2022-12-17T22:39:34.932Z,3.4
2022-12-17T22:42:01.627Z,3.4
2022-12-17T22:44:28.306Z,3.4
2022-12-17T22:46:54.997Z,3.4
2022-12-17T22:49:21.684Z,3.4
2022-12-17T22:51:48.380Z,3.4
2022-12-17T22:54:13.595Z,3.4
2022-12-17T22:56:40.308Z,3.4
2022-12-17T22:59:06.961Z,3.4
2022-12-17T23:01:33.648Z,3.3
2022-12-17T23:04:00.359Z,3.3
2022-12-17T23:06:27.027Z,3.4
2022-12-17T23:08:53.697Z,3.3
2022-12-17T23:11:20.429Z,3.3
2022-12-17T23:13:47.076Z,3.4
2022-12-17T23:16:13.774Z,3.3
2022-12-17T23:18:40.485Z,3.3
2022-12-17T23:21:07.147Z,3.3
2022-12-17T23:23:33.817Z,3.3
2022-12-17T23:25:59.072Z,3.3
2022-12-17T23:28:25.721Z,3.3
2022-12-17T23:30:52.435Z,3.3
2022-12-17T23:33:19.104Z,3.3
2022-12-17T23:35:45.795Z,3.2
2022-12-17T23:38:12.473Z,3.3
2022-12-17T23:40:39.162Z,3.2
2022-12-17T23:43:05.912Z,3.2
2022-12-17T23:45:32.548Z,3.3
2022-12-17T23:47:59.269Z,3.3
2022-12-17T23:50:25.918Z,3.2
2022-12-17T23:52:52.604Z,3.2
2022-12-17T23:55:19.288Z,3.2
2022-12-17T23:57:44.505Z,3.2
